sensor_id;sensor_type;location;lat;lon;timestamp;P1;durP1;ratioP1;P2;durP2;ratioP2
23732;SDS011;12047;53.450;-2.286;2023-03-31T00:03:46;16.30;;;2.78;;
23732;SDS011;12047;53.450;-2.286;2023-03-31T00:08:47;21.65;;;3.17;;
23732;SDS011;12047;53.450;-2.286;2023-03-31T00:13:50;9.38;;;2.20;;
23732;SDS011;12047;53.450;-2.286;2023-03-31T00:18:51;7.80;;;1.77;;
23732;SDS011;12047;53.450;-2.286;2023-03-31T00:23:52;11.57;;;2.35;;
23732;SDS011;12047;53.450;-2.286;2023-03-31T00:28:54;7.03;;;1.52;;
23732;SDS011;12047;53.450;-2.286;2023-03-31T00:33:55;8.18;;;1.92;;
23732;SDS011;12047;53.450;-2.286;2023-03-31T00:38:57;9.68;;;1.80;;
23732;SDS011;12047;53.450;-2.286;2023-03-31T00:44:09;8.88;;;1.85;;
23732;SDS011;12047;53.450;-2.286;2023-03-31T00:49:18;7.15;;;1.77;;
23732;SDS011;12047;53.450;-2.286;2023-03-31T00:54:25;8.90;;;2.30;;
23732;SDS011;12047;53.450;-2.286;2023-03-31T00:59:29;8.35;;;2.05;;
23732;SDS011;12047;53.450;-2.286;2023-03-31T01:04:32;10.07;;;2.33;;
23732;SDS011;12047;53.450;-2.286;2023-03-31T01:09:46;11.23;;;2.75;;
23732;SDS011;12047;53.450;-2.286;2023-03-31T01:14:48;13.18;;;3.08;;
23732;SDS011;12047;53.450;-2.286;2023-03-31T01:20:14;11.18;;;2.42;;
23732;SDS011;12047;53.450;-2.286;2023-03-31T01:47:15;9.43;;;2.25;;
23732;SDS011;12047;53.450;-2.286;2023-03-31T01:52:27;6.53;;;1.80;;
23732;SDS011;12047;53.450;-2.286;2023-03-31T01:57:46;11.60;;;2.25;;
23732;SDS011;12047;53.450;-2.286;2023-03-31T02:08:07;8.40;;;1.88;;
23732;SDS011;12047;53.450;-2.286;2023-03-31T02:13:17;9.73;;;2.03;;
23732;SDS011;12047;53.450;-2.286;2023-03-31T02:18:22;8.10;;;2.00;;
23732;SDS011;12047;53.450;-2.286;2023-03-31T02:28:35;7.38;;;2.60;;
23732;SDS011;12047;53.450;-2.286;2023-03-31T02:33:36;10.00;;;2.35;;
23732;SDS011;12047;53.450;-2.286;2023-03-31T02:38:47;8.35;;;2.25;;
23732;SDS011;12047;53.450;-2.286;2023-03-31T02:43:53;6.53;;;2.03;;
23732;SDS011;12047;53.450;-2.286;2023-03-31T02:48:54;11.93;;;2.38;;
23732;SDS011;12047;53.450;-2.286;2023-03-31T03:05:00;13.77;;;3.08;;
23732;SDS011;12047;53.450;-2.286;2023-03-31T03:10:03;8.07;;;2.47;;
23732;SDS011;12047;53.450;-2.286;2023-03-31T03:20:50;8.88;;;2.60;;
23732;SDS011;12047;53.450;-2.286;2023-03-31T03:25:51;8.10;;;2.60;;
23732;SDS011;12047;53.450;-2.286;2023-03-31T03:30:52;10.52;;;3.35;;
23732;SDS011;12047;53.450;-2.286;2023-03-31T03:35:53;13.55;;;4.90;;
23732;SDS011;12047;53.450;-2.286;2023-03-31T03:40:54;13.55;;;6.47;;
23732;SDS011;12047;53.450;-2.286;2023-03-31T03:46:02;11.60;;;6.35;;
23732;SDS011;12047;53.450;-2.286;2023-03-31T03:57:10;9.30;;;3.67;;
23732;SDS011;12047;53.450;-2.286;2023-03-31T04:02:13;8.43;;;2.47;;
23732;SDS011;12047;53.450;-2.286;2023-03-31T04:07:14;8.35;;;1.92;;
23732;SDS011;12047;53.450;-2.286;2023-03-31T04:12:16;6.80;;;1.42;;
23732;SDS011;12047;53.450;-2.286;2023-03-31T04:17:16;5.60;;;1.50;;
23732;SDS011;12047;53.450;-2.286;2023-03-31T04:22:17;4.47;;;1.13;;
23732;SDS011;12047;53.450;-2.286;2023-03-31T04:27:19;5.57;;;1.20;;
23732;SDS011;12047;53.450;-2.286;2023-03-31T04:32:22;4.43;;;1.35;;
23732;SDS011;12047;53.450;-2.286;2023-03-31T04:37:23;3.25;;;1.10;;
23732;SDS011;12047;53.450;-2.286;2023-03-31T04:42:27;4.88;;;1.13;;
23732;SDS011;12047;53.450;-2.286;2023-03-31T04:47:30;1.70;;;1.00;;
23732;SDS011;12047;53.450;-2.286;2023-03-31T04:52:34;1.75;;;0.98;;
23732;SDS011;12047;53.450;-2.286;2023-03-31T04:57:34;1.95;;;0.80;;
23732;SDS011;12047;53.450;-2.286;2023-03-31T05:02:36;4.93;;;0.70;;
23732;SDS011;12047;53.450;-2.286;2023-03-31T05:13:34;2.47;;;0.80;;
23732;SDS011;12047;53.450;-2.286;2023-03-31T05:18:35;1.40;;;0.98;;
23732;SDS011;12047;53.450;-2.286;2023-03-31T05:23:35;1.52;;;0.90;;
23732;SDS011;12047;53.450;-2.286;2023-03-31T05:28:36;2.55;;;1.10;;
23732;SDS011;12047;53.450;-2.286;2023-03-31T05:33:37;4.47;;;1.27;;
23732;SDS011;12047;53.450;-2.286;2023-03-31T05:38:40;1.80;;;0.95;;
23732;SDS011;12047;53.450;-2.286;2023-03-31T05:43:42;1.67;;;0.90;;
23732;SDS011;12047;53.450;-2.286;2023-03-31T05:48:45;1.27;;;0.95;;
23732;SDS011;12047;53.450;-2.286;2023-03-31T05:53:46;3.30;;;0.90;;
23732;SDS011;12047;53.450;-2.286;2023-03-31T05:58:47;1.77;;;1.10;;
23732;SDS011;12047;53.450;-2.286;2023-03-31T06:03:50;1.15;;;1.00;;
23732;SDS011;12047;53.450;-2.286;2023-03-31T06:08:51;0.80;;;0.80;;
23732;SDS011;12047;53.450;-2.286;2023-03-31T06:13:57;0.75;;;0.70;;
23732;SDS011;12047;53.450;-2.286;2023-03-31T06:18:57;0.93;;;0.40;;
23732;SDS011;12047;53.450;-2.286;2023-03-31T06:23:58;0.70;;;0.30;;
23732;SDS011;12047;53.450;-2.286;2023-03-31T06:28:59;0.90;;;0.43;;
23732;SDS011;12047;53.450;-2.286;2023-03-31T06:34:00;1.05;;;0.30;;
23732;SDS011;12047;53.450;-2.286;2023-03-31T06:39:01;2.50;;;0.95;;
23732;SDS011;12047;53.450;-2.286;2023-03-31T06:44:02;0.38;;;0.38;;
23732;SDS011;12047;53.450;-2.286;2023-03-31T06:49:02;0.98;;;0.43;;
23732;SDS011;12047;53.450;-2.286;2023-03-31T06:54:06;1.38;;;0.50;;
23732;SDS011;12047;53.450;-2.286;2023-03-31T06:59:10;0.95;;;0.57;;
23732;SDS011;12047;53.450;-2.286;2023-03-31T07:04:10;1.40;;;0.70;;
23732;SDS011;12047;53.450;-2.286;2023-03-31T07:09:11;1.98;;;0.70;;
23732;SDS011;12047;53.450;-2.286;2023-03-31T07:14:11;1.27;;;0.70;;
23732;SDS011;12047;53.450;-2.286;2023-03-31T07:19:12;1.73;;;0.80;;
23732;SDS011;12047;53.450;-2.286;2023-03-31T07:24:14;1.73;;;1.25;;
23732;SDS011;12047;53.450;-2.286;2023-03-31T07:29:15;3.22;;;0.80;;
23732;SDS011;12047;53.450;-2.286;2023-03-31T07:34:24;2.45;;;1.05;;
23732;SDS011;12047;53.450;-2.286;2023-03-31T07:39:25;4.10;;;1.27;;
23732;SDS011;12047;53.450;-2.286;2023-03-31T07:44:25;2.28;;;1.20;;
23732;SDS011;12047;53.450;-2.286;2023-03-31T07:49:26;2.92;;;1.00;;
23732;SDS011;12047;53.450;-2.286;2023-03-31T07:54:26;3.42;;;1.05;;
23732;SDS011;12047;53.450;-2.286;2023-03-31T07:59:27;2.35;;;1.52;;
23732;SDS011;12047;53.450;-2.286;2023-03-31T08:04:27;2.47;;;1.92;;
23732;SDS011;12047;53.450;-2.286;2023-03-31T08:09:28;2.97;;;2.55;;
23732;SDS011;12047;53.450;-2.286;2023-03-31T08:14:28;2.17;;;1.98;;
23732;SDS011;12047;53.450;-2.286;2023-03-31T08:19:29;2.17;;;1.73;;
23732;SDS011;12047;53.450;-2.286;2023-03-31T08:24:30;2.13;;;1.35;;
23732;SDS011;12047;53.450;-2.286;2023-03-31T08:29:30;2.08;;;1.83;;
23732;SDS011;12047;53.450;-2.286;2023-03-31T08:34:31;2.40;;;1.08;;
23732;SDS011;12047;53.450;-2.286;2023-03-31T08:39:31;1.10;;;1.00;;
23732;SDS011;12047;53.450;-2.286;2023-03-31T08:50:26;1.33;;;0.88;;
23732;SDS011;12047;53.450;-2.286;2023-03-31T09:06:01;1.30;;;1.20;;
23732;SDS011;12047;53.450;-2.286;2023-03-31T09:11:08;2.63;;;1.80;;
23732;SDS011;12047;53.450;-2.286;2023-03-31T09:21:34;2.85;;;2.00;;
23732;SDS011;12047;53.450;-2.286;2023-03-31T09:26:59;2.65;;;1.88;;
23732;SDS011;12047;53.450;-2.286;2023-03-31T09:32:18;3.88;;;1.75;;
23732;SDS011;12047;53.450;-2.286;2023-03-31T09:37:27;2.13;;;1.50;;
23732;SDS011;12047;53.450;-2.286;2023-03-31T09:42:32;3.92;;;1.40;;
23732;SDS011;12047;53.450;-2.286;2023-03-31T09:47:36;4.57;;;1.45;;
23732;SDS011;12047;53.450;-2.286;2023-03-31T09:52:42;5.80;;;1.63;;
23732;SDS011;12047;53.450;-2.286;2023-03-31T09:57:47;4.72;;;2.38;;
23732;SDS011;12047;53.450;-2.286;2023-03-31T10:02:52;4.65;;;2.47;;
23732;SDS011;12047;53.450;-2.286;2023-03-31T10:08:39;2.78;;;1.83;;
23732;SDS011;12047;53.450;-2.286;2023-03-31T10:13:18;2.63;;;1.95;;
23732;SDS011;12047;53.450;-2.286;2023-03-31T10:18:22;4.60;;;1.58;;
23732;SDS011;12047;53.450;-2.286;2023-03-31T10:23:33;2.42;;;1.75;;
23732;SDS011;12047;53.450;-2.286;2023-03-31T10:28:35;4.65;;;2.15;;
23732;SDS011;12047;53.450;-2.286;2023-03-31T10:33:39;5.20;;;2.40;;
23732;SDS011;12047;53.450;-2.286;2023-03-31T10:38:45;2.38;;;1.40;;
23732;SDS011;12047;53.450;-2.286;2023-03-31T10:43:50;1.77;;;1.00;;
23732;SDS011;12047;53.450;-2.286;2023-03-31T10:48:53;2.17;;;1.10;;
23732;SDS011;12047;53.450;-2.286;2023-03-31T10:53:54;1.42;;;1.05;;
23732;SDS011;12047;53.450;-2.286;2023-03-31T11:21:23;1.50;;;0.80;;
23732;SDS011;12047;53.450;-2.286;2023-03-31T11:26:37;1.67;;;0.75;;
23732;SDS011;12047;53.450;-2.286;2023-03-31T11:31:42;0.60;;;0.60;;
23732;SDS011;12047;53.450;-2.286;2023-03-31T11:42:03;1.40;;;1.05;;
23732;SDS011;12047;53.450;-2.286;2023-03-31T11:47:09;1.65;;;1.05;;
23732;SDS011;12047;53.450;-2.286;2023-03-31T11:52:16;4.43;;;1.23;;
23732;SDS011;12047;53.450;-2.286;2023-03-31T11:57:23;2.78;;;1.45;;
23732;SDS011;12047;53.450;-2.286;2023-03-31T12:02:37;6.13;;;3.10;;
23732;SDS011;12047;53.450;-2.286;2023-03-31T12:07:51;4.15;;;2.85;;
23732;SDS011;12047;53.450;-2.286;2023-03-31T12:12:57;6.50;;;2.45;;
23732;SDS011;12047;53.450;-2.286;2023-03-31T12:18:19;5.63;;;1.70;;
23732;SDS011;12047;53.450;-2.286;2023-03-31T12:23:26;6.15;;;1.92;;
23732;SDS011;12047;53.450;-2.286;2023-03-31T12:28:30;6.18;;;1.83;;
23732;SDS011;12047;53.450;-2.286;2023-03-31T12:33:34;8.65;;;2.10;;
23732;SDS011;12047;53.450;-2.286;2023-03-31T13:00:35;7.30;;;2.10;;
23732;SDS011;12047;53.450;-2.286;2023-03-31T13:16:08;6.55;;;1.90;;
23732;SDS011;12047;53.450;-2.286;2023-03-31T13:21:09;5.18;;;1.95;;
23732;SDS011;12047;53.450;-2.286;2023-03-31T14:04:13;5.80;;;2.20;;
23732;SDS011;12047;53.450;-2.286;2023-03-31T14:09:25;2.97;;;1.20;;
23732;SDS011;12047;53.450;-2.286;2023-03-31T14:14:30;1.90;;;1.40;;
23732;SDS011;12047;53.450;-2.286;2023-03-31T14:35:41;2.88;;;1.00;;
23732;SDS011;12047;53.450;-2.286;2023-03-31T14:40:57;1.13;;;0.70;;
23732;SDS011;12047;53.450;-2.286;2023-03-31T14:46:04;3.45;;;0.82;;
23732;SDS011;12047;53.450;-2.286;2023-03-31T16:18:16;2.90;;;1.45;;
23732;SDS011;12047;53.450;-2.286;2023-03-31T16:23:26;2.28;;;1.30;;
23732;SDS011;12047;53.450;-2.286;2023-03-31T16:57:43;3.95;;;1.40;;
23732;SDS011;12047;53.450;-2.286;2023-03-31T17:02:56;4.85;;;1.80;;
23732;SDS011;12047;53.450;-2.286;2023-03-31T17:14:00;4.00;;;1.30;;
23732;SDS011;12047;53.450;-2.286;2023-03-31T17:25:23;6.15;;;1.52;;
23732;SDS011;12047;53.450;-2.286;2023-03-31T17:30:43;4.78;;;1.60;;
23732;SDS011;12047;53.450;-2.286;2023-03-31T17:47:31;3.33;;;2.05;;
23732;SDS011;12047;53.450;-2.286;2023-03-31T18:04:47;3.50;;;2.00;;
23732;SDS011;12047;53.450;-2.286;2023-03-31T18:28:15;3.53;;;1.83;;
23732;SDS011;12047;53.450;-2.286;2023-03-31T18:33:16;4.07;;;1.75;;
23732;SDS011;12047;53.450;-2.286;2023-03-31T18:44:15;3.40;;;2.00;;
23732;SDS011;12047;53.450;-2.286;2023-03-31T18:49:16;2.53;;;1.95;;
23732;SDS011;12047;53.450;-2.286;2023-03-31T18:54:19;2.30;;;1.70;;
23732;SDS011;12047;53.450;-2.286;2023-03-31T18:59:20;3.28;;;1.90;;
23732;SDS011;12047;53.450;-2.286;2023-03-31T19:04:20;2.58;;;1.88;;
23732;SDS011;12047;53.450;-2.286;2023-03-31T19:09:21;3.78;;;1.92;;
23732;SDS011;12047;53.450;-2.286;2023-03-31T19:14:25;3.92;;;2.13;;
23732;SDS011;12047;53.450;-2.286;2023-03-31T19:19:26;2.70;;;1.88;;
23732;SDS011;12047;53.450;-2.286;2023-03-31T19:24:27;3.55;;;2.00;;
23732;SDS011;12047;53.450;-2.286;2023-03-31T19:29:28;3.15;;;2.20;;
23732;SDS011;12047;53.450;-2.286;2023-03-31T19:34:30;3.10;;;1.63;;
23732;SDS011;12047;53.450;-2.286;2023-03-31T19:39:32;2.30;;;1.50;;
23732;SDS011;12047;53.450;-2.286;2023-03-31T19:44:33;3.70;;;1.60;;
23732;SDS011;12047;53.450;-2.286;2023-03-31T19:49:34;2.35;;;1.55;;
23732;SDS011;12047;53.450;-2.286;2023-03-31T19:54:36;1.10;;;1.08;;
23732;SDS011;12047;53.450;-2.286;2023-03-31T19:59:37;1.58;;;1.40;;
23732;SDS011;12047;53.450;-2.286;2023-03-31T20:04:40;3.90;;;1.10;;
23732;SDS011;12047;53.450;-2.286;2023-03-31T20:09:41;1.65;;;1.30;;
23732;SDS011;12047;53.450;-2.286;2023-03-31T20:14:42;2.17;;;1.38;;
23732;SDS011;12047;53.450;-2.286;2023-03-31T20:19:42;2.75;;;1.38;;
23732;SDS011;12047;53.450;-2.286;2023-03-31T20:24:44;2.55;;;1.55;;
23732;SDS011;12047;53.450;-2.286;2023-03-31T20:29:44;3.90;;;1.55;;
23732;SDS011;12047;53.450;-2.286;2023-03-31T20:34:45;2.50;;;1.85;;
23732;SDS011;12047;53.450;-2.286;2023-03-31T20:39:46;3.00;;;1.80;;
23732;SDS011;12047;53.450;-2.286;2023-03-31T20:44:47;1.77;;;1.40;;
23732;SDS011;12047;53.450;-2.286;2023-03-31T20:49:47;1.85;;;1.30;;
23732;SDS011;12047;53.450;-2.286;2023-03-31T20:54:49;4.40;;;2.05;;
23732;SDS011;12047;53.450;-2.286;2023-03-31T20:59:50;2.40;;;1.90;;
23732;SDS011;12047;53.450;-2.286;2023-03-31T21:04:51;3.58;;;2.15;;
23732;SDS011;12047;53.450;-2.286;2023-03-31T21:09:52;3.55;;;2.72;;
23732;SDS011;12047;53.450;-2.286;2023-03-31T21:14:55;5.40;;;3.42;;
23732;SDS011;12047;53.450;-2.286;2023-03-31T21:19:56;6.25;;;3.83;;
23732;SDS011;12047;53.450;-2.286;2023-03-31T21:24:56;7.00;;;3.50;;
23732;SDS011;12047;53.450;-2.286;2023-03-31T21:29:57;5.25;;;3.40;;
23732;SDS011;12047;53.450;-2.286;2023-03-31T21:34:58;4.38;;;3.10;;
23732;SDS011;12047;53.450;-2.286;2023-03-31T21:39:58;5.90;;;3.53;;
23732;SDS011;12047;53.450;-2.286;2023-03-31T21:44:59;4.18;;;2.47;;
23732;SDS011;12047;53.450;-2.286;2023-03-31T21:50:00;2.50;;;1.80;;
23732;SDS011;12047;53.450;-2.286;2023-03-31T21:55:01;3.30;;;1.20;;
23732;SDS011;12047;53.450;-2.286;2023-03-31T22:00:05;2.47;;;1.33;;
23732;SDS011;12047;53.450;-2.286;2023-03-31T22:05:11;1.73;;;1.10;;
23732;SDS011;12047;53.450;-2.286;2023-03-31T22:10:15;1.95;;;1.20;;
23732;SDS011;12047;53.450;-2.286;2023-03-31T22:15:19;1.50;;;1.15;;
23732;SDS011;12047;53.450;-2.286;2023-03-31T22:20:19;1.88;;;1.30;;
23732;SDS011;12047;53.450;-2.286;2023-03-31T22:25:28;2.42;;;1.30;;
23732;SDS011;12047;53.450;-2.286;2023-03-31T22:30:29;5.97;;;1.50;;
23732;SDS011;12047;53.450;-2.286;2023-03-31T22:35:31;2.45;;;1.45;;
23732;SDS011;12047;53.450;-2.286;2023-03-31T22:40:38;3.20;;;1.48;;
23732;SDS011;12047;53.450;-2.286;2023-03-31T22:45:39;4.30;;;1.58;;
23732;SDS011;12047;53.450;-2.286;2023-03-31T22:50:41;3.33;;;1.40;;
23732;SDS011;12047;53.450;-2.286;2023-03-31T22:55:43;2.40;;;1.52;;
23732;SDS011;12047;53.450;-2.286;2023-03-31T23:00:44;2.30;;;1.23;;
23732;SDS011;12047;53.450;-2.286;2023-03-31T23:05:45;2.70;;;1.10;;
23732;SDS011;12047;53.450;-2.286;2023-03-31T23:10:55;2.42;;;1.17;;
23732;SDS011;12047;53.450;-2.286;2023-03-31T23:16:03;2.05;;;1.05;;
23732;SDS011;12047;53.450;-2.286;2023-03-31T23:21:05;4.45;;;1.17;;
23732;SDS011;12047;53.450;-2.286;2023-03-31T23:26:06;2.30;;;1.20;;
23732;SDS011;12047;53.450;-2.286;2023-03-31T23:31:08;1.80;;;0.90;;
23732;SDS011;12047;53.450;-2.286;2023-03-31T23:36:08;3.55;;;1.05;;
23732;SDS011;12047;53.450;-2.286;2023-03-31T23:41:09;2.15;;;1.00;;
23732;SDS011;12047;53.450;-2.286;2023-03-31T23:46:10;1.40;;;0.80;;
23732;SDS011;12047;53.450;-2.286;2023-03-31T23:51:12;1.35;;;0.90;;
23732;SDS011;12047;53.450;-2.286;2023-03-31T23:56:12;0.70;;;0.70;;
